Time;durP1;ratioP1;P1;durP2;ratioP2;P2;SDS_P1;SDS_P2;PMS_P1;PMS_P2;Temp;Humidity;BMP_temperature;BMP_pressure;BME280_temperature;BME280_humidity;BME280_pressure;Samples;Min_cycle;Max_cycle;Signal;HPM_P1;HPM_P2
2022/03/30 00:01:34;;;;;;;50.00;22.40;;;;;;;8.76;100.00;100680.91;5266844;28;20031;-79
2022/03/30 00:04:04;;;;;;;55.38;22.52;;;;;;;8.72;100.00;100681.38;5266928;28;20031;-79
2022/03/30 00:06:35;;;;;;;51.67;23.00;;;;;;;8.68;100.00;100685.38;5248529;28;20072;-78
2022/03/30 00:09:05;;;;;;;56.70;22.23;;;;;;;8.59;100.00;100691.69;5266843;28;20030;-79
2022/03/30 00:11:36;;;;;;;54.28;22.98;;;;;;;8.50;100.00;100685.44;5270908;28;20077;-81
2022/03/30 00:14:07;;;;;;;54.20;23.45;;;;;;;8.45;100.00;100680.56;5270548;28;20024;-80
2022/03/30 00:16:38;;;;;;;59.63;23.73;;;;;;;8.36;100.00;100677.94;5270507;28;20124;-81
2022/03/30 00:19:09;;;;;;;54.53;22.98;;;;;;;8.27;100.00;100679.72;5249223;28;20016;-77
2022/03/30 00:21:40;;;;;;;61.72;24.15;;;;;;;8.19;100.00;100677.00;5266283;28;20046;-76
2022/03/30 00:24:10;;;;;;;78.40;25.50;;;;;;;8.12;100.00;100674.06;5248284;28;20035;-78
2022/03/30 00:26:41;;;;;;;51.75;22.40;;;;;;;8.09;100.00;100662.88;5266636;28;20024;-78
2022/03/30 00:29:12;;;;;;;51.13;21.65;;;;;;;8.03;100.00;100662.50;5266344;28;20110;-78
2022/03/30 00:31:42;;;;;;;62.08;24.70;;;;;;;7.99;100.00;100660.28;5266258;28;20024;-78
2022/03/30 00:34:13;;;;;;;54.53;22.27;;;;;;;7.93;100.00;100666.22;5265793;28;20458;-78
2022/03/30 00:36:43;;;;;;;58.22;23.60;;;;;;;7.88;100.00;100663.19;5248532;28;20028;-78
2022/03/30 00:39:16;;;;;;;60.50;23.23;;;;;;;7.84;100.00;100661.81;5263189;28;20055;-77
2022/03/30 00:41:46;;;;;;;53.25;23.83;;;;;;;7.77;100.00;100662.41;5256161;28;20455;-78
2022/03/30 00:44:17;;;;;;;52.58;21.80;;;;;;;7.69;100.00;100661.53;5265440;28;20071;-78
2022/03/30 00:46:48;;;;;;;54.30;22.83;;;;;;;7.64;100.00;100661.97;5266297;28;20027;-78
2022/03/30 00:49:18;;;;;;;58.50;24.80;;;;;;;7.61;100.00;100661.44;5266241;28;20086;-78
2022/03/30 00:51:49;;;;;;;59.85;23.38;;;;;;;7.56;100.00;100655.72;5249397;28;20031;-78
2022/03/30 00:54:19;;;;;;;57.45;24.00;;;;;;;7.52;100.00;100653.31;5270440;28;20050;-78
2022/03/30 00:56:50;;;;;;;55.25;21.55;;;;;;;7.50;100.00;100651.81;5270508;28;20476;-78
2022/03/30 00:59:20;;;;;;;60.38;22.33;;;;;;;7.47;100.00;100650.28;5271080;28;20539;-78
2022/03/30 01:01:51;;;;;;;62.33;22.38;;;;;;;7.42;100.00;100644.53;5270721;28;20032;-78
2022/03/30 01:04:21;;;;;;;57.70;21.50;;;;;;;7.41;100.00;100650.03;5270726;28;20068;-78
2022/03/30 01:06:52;;;;;;;55.20;22.75;;;;;;;7.37;100.00;100649.50;5270439;28;20440;-78
2022/03/30 01:09:23;;;;;;;55.08;22.08;;;;;;;7.36;100.00;100647.81;5270924;28;20081;-79
2022/03/30 01:11:55;;;;;;;57.60;23.73;;;;;;;7.35;100.00;100635.47;5271106;28;20391;-80
2022/03/30 01:14:26;;;;;;;57.28;22.98;;;;;;;7.37;100.00;100637.97;5246083;28;20111;-80
2022/03/30 01:16:57;;;;;;;54.60;21.48;;;;;;;7.37;100.00;100632.66;5269279;28;20089;-80
2022/03/30 01:19:29;;;;;;;56.22;23.45;;;;;;;7.36;100.00;100633.63;5253425;28;20024;-80
2022/03/30 01:22:00;;;;;;;53.70;21.13;;;;;;;7.34;100.00;100631.13;5270493;28;20032;-80
2022/03/30 01:24:31;;;;;;;55.67;22.80;;;;;;;7.33;100.00;100626.78;5252577;28;20028;-80
2022/03/30 01:27:02;;;;;;;57.17;22.60;;;;;;;7.33;100.00;100616.13;5252925;28;20047;-79
2022/03/30 01:32:34;;;;;;;54.60;21.63;;;;;;;7.40;100.00;100617.19;5273787;28;20016;-80
2022/03/30 01:35:22;;;;;;;57.50;22.30;;;;;;;7.41;100.00;100616.19;5269718;28;20480;-80
2022/03/30 01:37:55;;;;;;;54.10;21.55;;;;;;;7.43;100.00;100608.00;5254998;28;20077;-79
2022/03/30 01:40:26;;;;;;;64.95;21.50;;;;;;;7.43;100.00;100608.88;5259948;28;20340;-79
2022/03/30 01:42:56;;;;;;;55.45;21.10;;;;;;;7.42;100.00;100601.84;5272655;28;20185;-79
2022/03/30 01:45:27;;;;;;;51.63;21.85;;;;;;;7.40;100.00;100600.31;5253867;28;20020;-79
2022/03/30 01:48:00;;;;;;;56.13;21.00;;;;;;;7.39;100.00;100593.31;5273515;28;20024;-79
2022/03/30 01:50:32;;;;;;;57.95;21.67;;;;;;;7.37;100.00;100593.44;5273145;28;20070;-80
2022/03/30 01:53:03;;;;;;;49.92;20.55;;;;;;;7.37;100.00;100590.78;5272829;28;20544;-80
2022/03/30 01:55:33;;;;;;;51.33;20.60;;;;;;;7.35;100.00;100587.44;5252995;28;20118;-79
2022/03/30 01:58:05;;;;;;;60.45;21.05;;;;;;;7.32;100.00;100590.41;5252218;28;20038;-78
2022/03/30 02:00:35;;;;;;;55.90;21.50;;;;;;;7.27;100.00;100587.34;5270047;28;20596;-79
2022/03/30 02:03:06;;;;;;;50.65;20.75;;;;;;;7.25;100.00;100584.84;5269008;28;20032;-79
2022/03/30 02:05:36;;;;;;;55.92;22.02;;;;;;;7.20;100.00;100578.28;5276368;28;20038;-79
2022/03/30 02:08:07;;;;;;;59.97;22.65;;;;;;;7.19;100.00;100580.09;5254631;28;20479;-79
2022/03/30 02:10:38;;;;;;;52.05;21.17;;;;;;;7.19;100.00;100581.94;5254097;28;20083;-80
2022/03/30 02:13:10;;;;;;;55.30;20.27;;;;;;;7.17;100.00;100578.56;5272755;28;20061;-79
2022/03/30 02:15:40;;;;;;;51.92;20.33;;;;;;;7.14;100.00;100579.72;5246040;28;20031;-79
2022/03/30 02:18:11;;;;;;;52.30;22.55;;;;;;;7.14;100.00;100579.72;5269463;28;20394;-80
2022/03/30 02:20:41;;;;;;;51.25;19.80;;;;;;;7.13;100.00;100577.19;5269399;28;20031;-79
2022/03/30 02:23:12;;;;;;;59.15;20.70;;;;;;;7.09;100.00;100575.84;5269612;28;20012;-80
2022/03/30 02:25:42;;;;;;;61.70;21.58;;;;;;;7.05;100.00;100574.44;5251019;28;20043;-79
2022/03/30 02:28:13;;;;;;;52.13;20.52;;;;;;;7.04;100.00;100578.09;5269300;28;20028;-79
2022/03/30 02:30:43;;;;;;;53.70;21.25;;;;;;;7.01;100.00;100569.41;5251294;28;20386;-80
2022/03/30 02:33:14;;;;;;;56.22;21.15;;;;;;;7.01;100.00;100573.91;5269460;28;20089;-79
2022/03/30 02:35:44;;;;;;;52.42;20.80;;;;;;;6.99;100.00;100574.06;5269333;28;20031;-79
2022/03/30 02:38:15;;;;;;;55.25;21.80;;;;;;;6.95;100.00;100575.34;5269237;28;20046;-79
2022/03/30 02:40:46;;;;;;;57.65;21.92;;;;;;;6.93;100.00;100571.16;5255616;28;20032;-80
2022/03/30 02:43:19;;;;;;;56.38;21.15;;;;;;;6.92;100.00;100567.63;5269791;28;20028;-79
2022/03/30 02:45:50;;;;;;;54.03;21.50;;;;;;;6.91;100.00;100568.63;5250590;28;20024;-79
2022/03/30 02:48:28;;;;;;;50.47;19.75;;;;;;;6.90;100.00;100564.28;5250995;28;20020;-79
2022/03/30 02:51:07;;;;;;;59.53;22.02;;;;;;;6.87;100.00;100563.72;5268493;28;20047;-79
2022/03/30 02:53:38;;;;;;;54.30;20.50;;;;;;;6.81;100.00;100562.50;5269370;28;20058;-79
2022/03/30 02:56:08;;;;;;;52.30;21.42;;;;;;;6.77;100.00;100555.78;5268281;28;20024;-80
2022/03/30 02:58:38;;;;;;;49.88;21.45;;;;;;;6.75;100.00;100553.28;5268650;28;20519;-80
2022/03/30 03:01:09;;;;;;;51.90;20.88;;;;;;;6.77;100.00;100553.13;5250211;28;20601;-79
2022/03/30 03:03:40;;;;;;;54.17;20.27;;;;;;;6.79;100.00;100550.31;5268692;28;20035;-79
2022/03/30 03:06:11;;;;;;;53.22;19.77;;;;;;;6.80;100.00;100554.66;5267998;28;20526;-79
2022/03/30 03:08:41;;;;;;;52.33;19.23;;;;;;;6.81;100.00;100546.50;5268319;28;20039;-79
2022/03/30 03:11:13;;;;;;;49.22;19.42;;;;;;;6.82;100.00;100547.34;5268137;28;20020;-78
2022/03/30 03:13:43;;;;;;;54.22;19.73;;;;;;;6.83;100.00;100535.69;5249808;28;20024;-78
2022/03/30 03:16:14;;;;;;;52.78;19.88;;;;;;;6.82;100.00;100537.50;5261170;28;20042;-79
2022/03/30 03:18:45;;;;;;;61.22;20.27;;;;;;;6.79;100.00;100543.16;5250165;28;20027;-79
2022/03/30 03:21:15;;;;;;;60.33;20.70;;;;;;;6.79;100.00;100535.16;5267825;28;20476;-79
2022/03/30 03:23:46;;;;;;;59.35;20.30;;;;;;;6.78;100.00;100541.50;5250326;28;20024;-78
2022/03/30 03:26:16;;;;;;;49.85;21.27;;;;;;;6.78;100.00;100540.63;5267378;28;20107;-78
2022/03/30 03:28:47;;;;;;;60.15;20.98;;;;;;;6.77;100.00;100528.28;5249942;28;20058;-79
2022/03/30 03:31:18;;;;;;;54.53;19.58;;;;;;;6.78;100.00;100532.63;5249983;28;20020;-79
2022/03/30 03:33:48;;;;;;;54.53;20.20;;;;;;;6.76;100.00;100527.44;5249764;28;20030;-79
2022/03/30 03:36:19;;;;;;;61.67;19.45;;;;;;;6.75;100.00;100533.78;5249358;28;20399;-79
2022/03/30 03:38:49;;;;;;;59.67;20.38;;;;;;;6.74;100.00;100526.78;5267478;28;20570;-78
2022/03/30 03:41:20;;;;;;;60.47;21.35;;;;;;;6.74;100.00;100529.44;5253761;28;20062;-79
2022/03/30 03:43:51;;;;;;;54.97;20.50;;;;;;;6.74;100.00;100534.78;5249994;28;20415;-79
2022/03/30 03:46:22;;;;;;;56.65;20.63;;;;;;;6.72;100.00;100526.06;5266849;28;20012;-79
2022/03/30 03:48:52;;;;;;;56.78;20.90;;;;;;;6.73;100.00;100533.09;5267709;28;20503;-79
2022/03/30 03:51:23;;;;;;;56.63;19.05;;;;;;;6.75;100.00;100525.78;5266920;28;20026;-78
2022/03/30 03:53:54;;;;;;;55.08;20.10;;;;;;;6.74;100.00;100524.94;5267422;28;20059;-79
2022/03/30 03:56:25;;;;;;;55.70;20.08;;;;;;;6.78;100.00;100522.81;5266958;28;20483;-78
2022/03/30 03:58:55;;;;;;;45.90;19.02;;;;;;;6.79;100.00;100521.84;5249115;28;20137;-79
2022/03/30 04:01:27;;;;;;;52.90;20.35;;;;;;;6.80;100.00;100526.16;5267016;28;20024;-78
2022/03/30 04:03:58;;;;;;;62.25;20.35;;;;;;;6.79;100.00;100529.00;5275916;28;20026;-79
2022/03/30 04:06:29;;;;;;;60.35;20.73;;;;;;;6.75;100.00;100528.44;5249601;28;20023;-79
2022/03/30 04:08:59;;;;;;;62.55;19.95;;;;;;;6.71;100.00;100524.41;5249161;28;20035;-79
2022/03/30 04:11:30;;;;;;;67.03;21.58;;;;;;;6.67;100.00;100515.00;5248779;28;20019;-79
2022/03/30 04:14:01;;;;;;;64.78;21.98;;;;;;;6.63;100.00;100521.66;5264241;28;20626;-79
2022/03/30 04:16:31;;;;;;;44.92;19.58;;;;;;;6.59;100.00;100520.25;5264938;28;20032;-78
2022/03/30 04:19:02;;;;;;;60.95;21.27;;;;;;;6.58;100.00;100513.25;5267119;28;20464;-79
2022/03/30 04:21:32;;;;;;;65.05;21.95;;;;;;;6.55;100.00;100514.38;5266430;28;20433;-79
2022/03/30 04:24:03;;;;;;;59.47;20.75;;;;;;;6.53;100.00;100515.53;5267407;28;20103;-79
2022/03/30 04:26:34;;;;;;;60.42;19.70;;;;;;;6.52;100.00;100517.34;5265732;28;20035;-79
2022/03/30 04:29:06;;;;;;;55.53;20.88;;;;;;;6.47;100.00;100511.59;5248580;28;20028;-79
2022/03/30 04:31:36;;;;;;;55.75;18.88;;;;;;;6.41;100.00;100510.38;5266474;28;20094;-79
2022/03/30 04:34:07;;;;;;;59.90;21.88;;;;;;;6.38;100.00;100517.84;5248499;28;20562;-80
2022/03/30 04:36:37;;;;;;;57.78;21.73;;;;;;;6.33;100.00;100514.78;5248650;28;20028;-79
2022/03/30 04:39:07;;;;;;;66.95;22.40;;;;;;;6.30;100.00;100509.75;5266932;28;20031;-79
2022/03/30 04:41:38;;;;;;;65.05;24.90;;;;;;;6.28;100.00;100509.06;5241366;28;20465;-79
2022/03/30 04:44:08;;;;;;;62.80;21.15;;;;;;;6.23;100.00;100510.34;5248620;28;20032;-79
2022/03/30 04:46:39;;;;;;;57.88;21.55;;;;;;;6.22;100.00;100507.78;5268352;28;20059;-79
2022/03/30 04:49:09;;;;;;;61.72;20.83;;;;;;;6.18;100.00;100501.09;5269445;28;20053;-79
2022/03/30 04:51:40;;;;;;;57.83;20.90;;;;;;;6.15;100.00;100506.72;5268317;28;20017;-79
2022/03/30 04:54:10;;;;;;;64.07;23.33;;;;;;;6.11;100.00;100511.47;5268041;28;20099;-79
2022/03/30 04:56:41;;;;;;;66.70;23.77;;;;;;;6.09;100.00;100501.97;5250837;28;20031;-79
2022/03/30 04:59:12;;;;;;;64.35;20.88;;;;;;;6.07;100.00;100503.94;5268117;28;20051;-80
2022/03/30 05:01:42;;;;;;;59.45;21.25;;;;;;;6.05;100.00;100500.59;5267265;28;20024;-80
2022/03/30 05:04:13;;;;;;;56.28;22.50;;;;;;;6.01;100.00;100501.84;5266182;28;20077;-79
2022/03/30 05:06:43;;;;;;;67.50;21.95;;;;;;;6.00;100.00;100502.84;5248937;28;20035;-80
2022/03/30 05:09:14;;;;;;;58.72;22.05;;;;;;;5.93;100.00;100506.09;5249100;28;20085;-76
2022/03/30 05:11:44;;;;;;;56.70;22.00;;;;;;;5.94;100.00;100498.94;5266846;28;20107;-78
2022/03/30 05:14:15;;;;;;;67.70;22.67;;;;;;;5.93;100.00;100506.09;5261318;28;20017;-78
2022/03/30 05:16:45;;;;;;;52.75;22.63;;;;;;;5.93;100.00;100513.25;5262610;28;20032;-77
2022/03/30 05:19:15;;;;;;;68.20;22.98;;;;;;;5.91;100.00;100513.38;5266417;28;20035;-81
2022/03/30 05:21:46;;;;;;;64.65;23.40;;;;;;;5.89;100.00;100502.00;5248223;28;20078;-80
2022/03/30 05:24:16;;;;;;;75.60;23.42;;;;;;;5.88;100.00;100510.13;5266104;28;20027;-80
2022/03/30 05:26:47;;;;;;;62.78;22.23;;;;;;;5.86;100.00;100504.94;5266334;28;20039;-78
2022/03/30 05:29:17;;;;;;;72.00;22.77;;;;;;;5.85;100.00;100505.09;5265915;28;20059;-78
2022/03/30 05:31:48;;;;;;;63.45;22.58;;;;;;;5.84;100.00;100504.25;5266095;28;20028;-78
2022/03/30 05:34:19;;;;;;;53.03;20.45;;;;;;;5.81;100.00;100499.22;5265482;28;20030;-78
2022/03/30 05:36:49;;;;;;;61.83;21.88;;;;;;;5.78;100.00;100499.50;5266055;28;20421;-77
2022/03/30 05:39:20;;;;;;;73.90;24.17;;;;;;;5.80;100.00;100504.69;5263804;28;20025;-76
2022/03/30 05:41:51;;;;;;;59.38;21.88;;;;;;;5.80;100.00;100505.53;5260086;28;20128;-77
2022/03/30 05:44:21;;;;;;;59.22;22.95;;;;;;;5.79;100.00;100509.16;5269056;28;20035;-77
2022/03/30 05:46:52;;;;;;;68.40;23.55;;;;;;;5.79;100.00;100506.50;5269607;28;20024;-77
2022/03/30 05:49:24;;;;;;;66.18;22.98;;;;;;;5.78;100.00;100499.50;5270716;28;20082;-78
2022/03/30 05:51:54;;;;;;;59.63;22.58;;;;;;;5.80;100.00;100508.19;5269678;28;20059;-78
2022/03/30 05:54:26;;;;;;;51.83;21.33;;;;;;;5.82;100.00;100516.00;5268947;28;20502;-78
2022/03/30 05:59:45;;;;;;;59.63;20.80;;;;;;;5.90;100.00;100519.66;5269517;28;20020;-78
2022/03/30 06:02:16;;;;;;;66.18;21.42;;;;;;;6.03;100.00;100524.69;5269519;28;20472;-78
2022/03/30 06:04:49;;;;;;;58.63;22.30;;;;;;;6.11;100.00;100519.47;5268728;28;20040;-78
2022/03/30 06:07:20;;;;;;;62.42;21.02;;;;;;;6.20;100.00;100525.75;5269539;28;20106;-78
2022/03/30 06:09:50;;;;;;;65.10;21.60;;;;;;;6.25;100.00;100530.66;5269578;28;20106;-78
2022/03/30 06:12:23;;;;;;;73.00;23.20;;;;;;;6.31;100.00;100524.72;5269258;28;20024;-78
2022/03/30 06:14:54;;;;;;;60.92;22.23;;;;;;;6.37;100.00;100522.31;5261249;28;20391;-78
2022/03/30 06:17:24;;;;;;;67.13;22.70;;;;;;;6.43;100.00;100531.56;5269066;28;20036;-78
2022/03/30 06:19:57;;;;;;;52.33;20.30;;;;;;;6.48;100.00;100537.28;5269069;28;20028;-78
2022/03/30 06:22:30;;;;;;;64.90;20.40;;;;;;;6.55;100.00;100525.03;5269239;28;20390;-78
2022/03/30 06:25:00;;;;;;;66.45;23.10;;;;;;;6.57;100.00;100522.22;5268809;28;20031;-78
2022/03/30 06:27:31;;;;;;;65.35;22.10;;;;;;;6.60;100.00;100520.09;5250709;28;20081;-78
2022/03/30 06:30:04;;;;;;;53.35;21.10;;;;;;;6.63;100.00;100522.50;5268691;28;20075;-78
2022/03/30 06:32:35;;;;;;;59.17;21.75;;;;;;;6.68;100.00;100525.53;5259791;28;20476;-78
2022/03/30 06:35:05;;;;;;;70.00;22.70;;;;;;;6.77;100.00;100530.94;5246204;28;20107;-78
2022/03/30 06:37:36;;;;;;;59.28;20.95;;;;;;;6.83;100.00;100528.56;5267192;28;20031;-78
2022/03/30 06:40:07;;;;;;;59.95;20.13;;;;;;;6.86;100.00;100522.91;5222365;28;20046;-78
2022/03/30 06:42:39;;;;;;;57.05;20.13;;;;;;;6.92;100.00;100521.47;5265285;28;20118;-79
2022/03/30 06:45:10;;;;;;;63.67;20.50;;;;;;;7.10;100.00;100530.31;5267954;28;20028;-79
2022/03/30 06:47:41;;;;;;;60.47;19.55;;;;;;;7.28;100.00;100522.34;5233805;28;20111;-77
2022/03/30 06:50:13;;;;;;;53.20;20.80;;;;;;;7.48;100.00;100521.19;5249148;28;20110;-78
2022/03/30 06:52:44;;;;;;;52.78;19.35;;;;;;;7.51;100.00;100518.19;5267934;28;20022;-78
2022/03/30 06:55:14;;;;;;;49.88;19.25;;;;;;;7.78;100.00;100514.56;5266369;28;20016;-78
2022/03/30 06:57:45;;;;;;;51.35;19.27;;;;;;;7.99;100.00;100513.38;5238321;28;20079;-78
2022/03/30 07:00:17;;;;;;;50.00;20.10;;;;;;;8.04;100.00;100514.56;5267532;28;20039;-78
2022/03/30 07:02:48;;;;;;;53.10;18.92;;;;;;;7.84;100.00;100510.44;5239069;28;20025;-78
2022/03/30 07:05:18;;;;;;;61.10;21.33;;;;;;;7.84;100.00;100505.09;5263700;28;20106;-78
2022/03/30 07:10:38;;;;;;;58.97;19.23;;;;;;;7.69;100.00;100504.81;5251738;28;20077;-77
2022/03/30 07:13:08;;;;;;;58.08;19.75;;;;;;;7.61;100.00;100512.75;5266536;28;20028;-77
2022/03/30 07:15:40;;;;;;;53.88;19.42;;;;;;;7.54;100.00;100517.06;5258704;28;20472;-77
2022/03/30 07:18:10;;;;;;;60.35;20.60;;;;;;;7.49;100.00;100508.66;5266374;28;20032;-77
2022/03/30 07:20:41;;;;;;;58.78;20.45;;;;;;;7.53;100.00;100518.06;5266207;28;20019;-77
2022/03/30 07:23:11;;;;;;;54.97;20.08;;;;;;;7.57;100.00;100521.22;5265902;28;20027;-77
2022/03/30 07:25:42;;;;;;;54.85;19.25;;;;;;;7.53;100.00;100520.72;5265970;28;20020;-77
2022/03/30 07:28:15;;;;;;;51.50;19.58;;;;;;;7.53;100.00;100518.06;5266258;28;20055;-77
2022/03/30 07:30:48;;;;;;;47.97;18.05;;;;;;;7.49;100.00;100520.19;5248219;28;20023;-76
2022/03/30 07:33:19;;;;;;;59.13;19.98;;;;;;;7.50;100.00;100516.50;5265993;28;20471;-76
2022/03/30 07:35:50;;;;;;;54.85;18.95;;;;;;;7.55;100.00;100513.38;5265608;28;20475;-76
2022/03/30 07:38:21;;;;;;;46.25;18.05;;;;;;;7.56;100.00;100511.56;5247907;28;20020;-76
2022/03/30 07:40:53;;;;;;;52.08;18.15;;;;;;;7.66;100.00;100514.97;5252080;28;20164;-76
2022/03/30 07:43:23;;;;;;;53.53;20.00;;;;;;;7.69;100.00;100520.84;5265788;28;20476;-76
2022/03/30 07:45:54;;;;;;;58.90;19.83;;;;;;;7.81;100.00;100526.75;5265213;28;20027;-76
2022/03/30 07:48:24;;;;;;;57.70;19.80;;;;;;;8.32;100.00;100527.72;5248458;28;20028;-76
2022/03/30 07:50:55;;;;;;;47.97;17.42;;;;;;;9.15;100.00;100519.88;5265539;28;20387;-77
2022/03/30 07:53:25;;;;;;;59.25;17.90;;;;;;;9.94;100.00;100526.41;5265868;28;20060;-77
2022/03/30 07:55:57;;;;;;;44.78;18.25;;;;;;;10.43;100.00;100536.19;5265886;28;20473;-77
2022/03/30 07:58:27;;;;;;;48.75;17.92;;;;;;;11.02;100.00;100537.41;5265582;28;20233;-76
2022/03/30 08:00:57;;;;;;;45.28;18.95;;;;;;;11.49;100.00;100530.22;5264772;28;20027;-77
2022/03/30 08:03:28;;;;;;;51.28;18.50;;;;;;;11.36;100.00;100536.22;5264927;28;20454;-77
2022/03/30 08:06:00;;;;;;;53.00;19.00;;;;;;;11.33;100.00;100539.25;5265139;28;20031;-75
2022/03/30 08:08:31;;;;;;;44.33;17.48;;;;;;;11.51;100.00;100536.25;5265522;28;20487;-77
2022/03/30 08:11:01;;;;;;;43.25;17.90;;;;;;;11.30;100.00;100540.44;5265231;28;20081;-76
2022/03/30 08:13:32;;;;;;;40.80;16.42;;;;;;;11.09;100.00;100533.03;5247356;28;20031;-76
2022/03/30 08:16:03;;;;;;;42.95;18.15;;;;;;;10.87;100.00;100539.19;5258081;28;20047;-77
2022/03/30 08:18:33;;;;;;;54.25;19.30;;;;;;;10.70;100.00;100545.66;5265553;28;20074;-78
2022/03/30 08:23:53;;;;;;;41.33;16.70;;;;;;;10.40;100.00;100536.53;5254763;28;20024;-77
2022/03/30 08:26:23;;;;;;;51.38;17.50;;;;;;;10.15;100.00;100539.25;5264734;28;20081;-76
2022/03/30 08:28:54;;;;;;;45.13;16.85;;;;;;;10.08;100.00;100535.56;5265337;28;20547;-77
2022/03/30 08:31:25;;;;;;;45.13;16.95;;;;;;;9.79;100.00;100544.16;5264963;28;20441;-76
2022/03/30 08:33:55;;;;;;;47.40;17.48;;;;;;;10.02;100.00;100531.72;5265203;28;20024;-76
2022/03/30 08:36:29;;;;;;;44.78;18.02;;;;;;;10.24;100.00;100535.59;5264681;28;20024;-76
2022/03/30 08:39:05;;;;;;;46.92;16.40;;;;;;;9.99;100.00;100529.41;5263808;28;20475;-76
2022/03/30 08:41:36;;;;;;;38.50;16.67;;;;;;;10.06;100.00;100524.19;5253060;28;20052;-76
2022/03/30 08:44:06;;;;;;;42.38;16.73;;;;;;;10.02;100.00;100534.41;5264609;28;20059;-76
2022/03/30 08:46:38;;;;;;;40.03;17.38;;;;;;;10.24;100.00;100526.69;5264952;28;20112;-76
2022/03/30 08:49:08;;;;;;;40.88;16.73;;;;;;;10.22;100.00;100524.16;5264384;28;20030;-76
2022/03/30 08:51:42;;;;;;;42.40;18.05;;;;;;;10.01;100.00;100522.03;5264684;28;20016;-76
2022/03/30 08:54:14;;;;;;;46.72;17.50;;;;;;;9.84;100.00;100517.72;5264737;28;20024;-77
2022/03/30 08:56:45;;;;;;;39.85;16.98;;;;;;;9.90;100.00;100514.34;5265032;28;20055;-76
2022/03/30 08:59:19;;;;;;;48.67;17.02;;;;;;;10.29;100.00;100510.91;5264650;28;20020;-76
2022/03/30 09:01:52;;;;;;;38.00;16.27;;;;;;;10.32;100.00;100510.56;5264465;28;20126;-76
2022/03/30 09:04:25;;;;;;;36.75;15.98;;;;;;;10.54;100.00;100514.34;5264387;28;20060;-76
2022/03/30 09:06:58;;;;;;;42.85;16.45;;;;;;;10.63;100.00;100521.34;5246900;28;20099;-76
2022/03/30 09:09:32;;;;;;;44.35;16.63;;;;;;;11.03;100.00;100517.63;5264526;28;20472;-76
2022/03/30 09:12:09;;;;;;;42.78;16.90;;;;;;;11.42;100.00;100519.38;5264648;28;20051;-76
2022/03/30 09:14:42;;;;;;;46.55;17.25;;;;;;;11.77;100.00;100519.75;5261340;28;20024;-76
2022/03/30 09:17:13;;;;;;;34.10;16.05;;;;;;;11.83;100.00;100521.75;5269169;28;20386;-76
2022/03/30 09:19:44;;;;;;;43.10;17.77;;;;;;;12.16;100.00;100522.25;5268712;28;20020;-76
2022/03/30 09:22:14;;;;;;;39.13;16.20;;;;;;;12.47;100.00;100519.38;5257371;28;20488;-76
2022/03/30 09:24:46;;;;;;;33.35;15.00;;;;;;;12.50;100.00;100510.94;5256251;28;20467;-76
2022/03/30 09:27:16;;;;;;;35.33;15.90;;;;;;;12.12;100.00;100519.09;5268836;28;20028;-77
2022/03/30 09:29:47;;;;;;;39.75;17.08;;;;;;;11.96;100.00;100515.75;5268535;28;20026;-76
2022/03/30 09:32:17;;;;;;;39.42;15.38;;;;;;;11.98;100.00;100519.91;5268459;28;20052;-76
2022/03/30 09:34:51;;;;;;;35.60;15.40;;;;;;;11.93;100.00;100515.09;5250274;28;20030;-76
2022/03/30 09:37:22;;;;;;;37.53;14.63;;;;;;;12.06;100.00;100502.88;5250300;28;20060;-76
2022/03/30 09:39:53;;;;;;;39.58;16.02;;;;;;;12.25;100.00;100504.16;5260060;28;20817;-76
2022/03/30 09:42:27;;;;;;;32.40;14.68;;;;;;;12.36;100.00;100501.03;5263015;28;20027;-76
2022/03/30 09:44:58;;;;;;;34.42;14.07;;;;;;;12.25;100.00;100502.34;5268017;28;20105;-76
2022/03/30 09:47:37;;;;;;;42.28;14.68;;;;;;;12.04;100.00;100494.13;5268052;28;20230;-76
2022/03/30 09:50:08;;;;;;;36.15;16.20;;;;;;;12.42;100.00;100494.91;5268096;28;20032;-76
2022/03/30 09:52:39;;;;;;;37.00;14.95;;;;;;;12.58;100.00;100489.31;5268056;28;20051;-77
2022/03/30 09:55:11;;;;;;;39.70;15.23;;;;;;;12.49;100.00;100489.59;5267771;28;20060;-77
2022/03/30 09:57:41;;;;;;;37.47;15.38;;;;;;;13.07;100.00;100488.63;5268138;28;20395;-77
2022/03/30 10:00:12;;;;;;;27.13;13.70;;;;;;;13.19;97.42;100479.00;5267444;28;20036;-77
2022/03/30 10:02:46;;;;;;;34.97;14.43;;;;;;;13.02;100.00;100487.53;5267540;28;20059;-77
2022/03/30 10:05:22;;;;;;;32.78;15.30;;;;;;;13.29;100.00;100484.09;5267569;28;20418;-77
2022/03/30 10:07:55;;;;;;;;;;;;;;;13.20;100.00;100482.53;5268511;28;20103;-76
2022/03/30 10:10:26;;;;;;;34.63;14.43;;;;;;;13.53;100.00;100490.97;5267308;28;19915;-76
2022/03/30 10:12:56;;;;;;;37.63;14.88;;;;;;;13.97;100.00;100479.06;5267482;28;20018;-76
2022/03/30 10:15:28;;;;;;;32.15;14.15;;;;;;;13.80;95.19;100475.81;5260810;28;20115;-75
2022/03/30 10:17:58;;;;;;;31.10;13.85;;;;;;;13.71;95.56;100483.25;5268116;28;20023;-74
2022/03/30 10:20:31;;;;;;;31.35;14.75;;;;;;;13.59;95.69;100479.41;5267561;28;20030;-74
2022/03/30 10:23:31;;;;;;;32.13;14.18;;;;;;;13.25;94.74;100482.81;5267433;28;20418;-74
2022/03/30 10:26:20;;;;;;;35.78;14.00;;;;;;;13.36;96.78;100484.19;5266667;28;20055;-74
2022/03/30 10:28:58;;;;;;;33.42;13.63;;;;;;;13.34;94.25;100472.75;5267770;28;20047;-74
2022/03/30 10:31:30;;;;;;;33.17;13.95;;;;;;;13.20;93.31;100472.63;5267209;28;20059;-74
2022/03/30 10:34:50;;;;;;;31.33;13.88;;;;;;;12.99;94.55;100475.28;5268098;28;20562;-74
2022/03/30 10:37:42;;;;;;;28.85;13.77;;;;;;;12.99;93.57;100471.75;5255937;28;20031;-74
2022/03/30 10:40:30;;;;;;;34.33;13.40;;;;;;;12.81;95.65;100466.81;5257627;28;20135;-74
2022/03/30 10:43:04;;;;;;;37.42;13.52;;;;;;;13.08;94.57;100465.22;5241829;28;20438;-74
2022/03/30 10:45:49;;;;;;;26.50;12.77;;;;;;;13.23;92.02;100454.41;5254076;28;20395;-74
2022/03/30 10:48:36;;;;;;;39.80;17.33;;;;;;;13.27;91.58;100453.00;5268132;28;20016;-74
2022/03/30 10:51:07;;;;;;;34.97;13.95;;;;;;;13.40;92.09;100443.19;5268128;28;20137;-74
2022/03/30 10:53:39;;;;;;;45.88;16.52;;;;;;;13.56;88.33;100458.25;5268127;28;20435;-73
2022/03/30 10:56:10;;;;;;;35.55;13.73;;;;;;;13.57;88.82;100440.22;5258911;28;20676;-74
2022/03/30 10:58:49;;;;;;;41.58;16.15;;;;;;;13.64;91.93;100436.53;5263264;28;20028;-74
2022/03/30 11:01:22;;;;;;;38.38;14.57;;;;;;;13.69;89.02;100431.38;5267684;28;20495;-74
2022/03/30 11:04:27;;;;;;;36.28;14.27;;;;;;;14.04;92.63;100431.38;5268188;28;20085;-73
2022/03/30 11:06:58;;;;;;;34.88;13.40;;;;;;;14.07;92.35;100435.56;5268190;28;20463;-74
2022/03/30 11:09:30;;;;;;;31.25;14.20;;;;;;;14.15;92.80;100430.81;5267998;28;20123;-74
2022/03/30 11:12:05;;;;;;;31.65;13.93;;;;;;;14.11;89.24;100417.97;5268045;28;20024;-74
2022/03/30 11:14:43;;;;;;;34.47;13.30;;;;;;;14.41;85.36;100419.34;5261156;28;20078;-74
2022/03/30 11:17:29;;;;;;;28.13;12.93;;;;;;;14.55;88.56;100404.03;5257208;28;20036;-75
2022/03/30 11:19:59;;;;;;;31.40;13.38;;;;;;;14.34;85.22;100407.66;5267897;28;20047;-75
2022/03/30 11:22:33;;;;;;;27.50;13.15;;;;;;;13.86;85.42;100409.53;5267323;28;20024;-75
2022/03/30 11:25:26;;;;;;;28.25;13.45;;;;;;;14.36;91.88;100408.31;5249163;28;20058;-75
2022/03/30 11:27:57;;;;;;;29.85;13.00;;;;;;;14.43;82.92;100411.84;5254119;28;20037;-75
2022/03/30 11:30:31;;;;;;;25.92;13.65;;;;;;;14.39;86.86;100407.06;5267274;28;20059;-75
2022/03/30 11:33:13;;;;;;;30.20;14.25;;;;;;;14.19;81.94;100398.88;5267379;28;20020;-75
2022/03/30 11:35:48;;;;;;;27.48;13.35;;;;;;;14.17;83.14;100400.97;5266569;28;20031;-74
2022/03/30 11:38:21;;;;;;;30.90;13.63;;;;;;;14.23;83.35;100402.84;5255736;28;20024;-78
2022/03/30 11:40:58;;;;;;;33.80;14.15;;;;;;;14.57;81.69;100401.97;5256900;28;20023;-78
2022/03/30 11:43:29;;;;;;;51.42;13.93;;;;;;;14.69;80.89;100400.34;5268459;28;20059;-77